createdAt,value
2023-03-24T00:01:17.249Z,6.63
2023-03-24T00:03:47.020Z,6.85
2023-03-24T00:06:18.949Z,8.27
2023-03-24T00:08:48.586Z,11.50
2023-03-24T00:11:21.429Z,7.25
2023-03-24T00:13:50.742Z,5.88
2023-03-24T00:16:22.323Z,6.50
2023-03-24T00:18:53.738Z,6.53
2023-03-24T00:21:26.951Z,8.75
2023-03-24T00:23:56.126Z,7.40
2023-03-24T00:27:15.727Z,6.75
2023-03-24T00:29:42.916Z,7.57
2023-03-24T00:32:10.218Z,6.55
2023-03-24T00:34:38.664Z,6.38
2023-03-24T00:37:06.615Z,7.43
2023-03-24T00:39:33.933Z,6.63
2023-03-24T00:42:03.534Z,6.90
2023-03-24T00:44:30.657Z,6.18
2023-03-24T00:46:57.910Z,9.00
2023-03-24T00:49:48.241Z,8.30
2023-03-24T00:52:21.037Z,9.43
2023-03-24T00:54:50.325Z,7.63
2023-03-24T00:57:26.287Z,10.43
2023-03-24T00:59:54.767Z,10.27
2023-03-24T01:02:25.313Z,10.43
2023-03-24T01:04:57.703Z,9.48
2023-03-24T01:07:26.801Z,12.65
2023-03-24T01:10:00.197Z,18.38
2023-03-24T01:12:33.249Z,16.80
2023-03-24T01:15:06.216Z,18.33
2023-03-24T01:17:34.737Z,15.00
2023-03-24T01:20:11.738Z,15.07
2023-03-24T01:22:41.171Z,11.93
2023-03-24T01:25:11.944Z,11.65
2023-03-24T01:27:39.124Z,11.18
2023-03-24T01:30:07.210Z,13.18
2023-03-24T01:32:34.693Z,12.02
2023-03-24T01:35:01.895Z,11.63
2023-03-24T01:37:29.047Z,10.85
2023-03-24T01:39:56.337Z,11.20
2023-03-24T01:42:26.433Z,9.30
2023-03-24T01:45:00.594Z,9.10
2023-03-24T01:47:27.826Z,7.55
2023-03-24T01:49:59.983Z,8.75
2023-03-24T01:52:31.269Z,7.55
2023-03-24T01:55:14.281Z,5.88
2023-03-24T01:57:45.086Z,7.25
2023-03-24T02:00:15.802Z,6.30
2023-03-24T02:03:11.887Z,7.53
2023-03-24T02:05:53.493Z,6.13
2023-03-24T02:08:21.320Z,6.00
2023-03-24T02:10:49.551Z,6.95
2023-03-24T02:13:16.849Z,6.45
2023-03-24T02:16:22.105Z,6.25
2023-03-24T02:19:12.675Z,8.23
2023-03-24T02:21:49.155Z,4.95
2023-03-24T02:24:34.272Z,5.32
2023-03-24T02:27:30.253Z,5.80
2023-03-24T02:30:09.825Z,7.15
2023-03-24T02:33:05.160Z,11.35
2023-03-24T02:35:35.586Z,7.57
2023-03-24T02:38:29.100Z,6.40
2023-03-24T02:41:26.395Z,6.78
2023-03-24T02:43:53.555Z,7.78
2023-03-24T02:46:33.475Z,6.47
2023-03-24T02:49:48.398Z,6.85
2023-03-24T02:52:15.800Z,6.70
2023-03-24T02:54:48.594Z,7.05
2023-03-24T02:57:25.987Z,6.40
2023-03-24T03:00:26.384Z,7.03
2023-03-24T03:03:13.451Z,7.05
2023-03-24T03:06:06.149Z,4.97
2023-03-24T03:08:35.392Z,8.65
2023-03-24T03:11:06.031Z,7.55
2023-03-24T03:13:39.564Z,7.45
2023-03-24T03:16:39.640Z,6.18
2023-03-24T03:23:49.633Z,5.75
2023-03-24T03:26:41.776Z,5.90
2023-03-24T03:30:35.470Z,10.73
2023-03-24T03:34:49.376Z,8.70
2023-03-24T04:31:15.554Z,9.25
2023-03-24T04:53:33.432Z,6.35
2023-03-24T05:07:17.472Z,7.80
2023-03-24T05:09:53.670Z,9.75
2023-03-24T05:12:51.109Z,6.65
2023-03-24T05:16:03.506Z,7.95
2023-03-24T05:21:31.315Z,5.72
2023-03-24T05:24:13.639Z,6.72
2023-03-24T05:30:04.138Z,5.38
2023-03-24T05:32:56.525Z,5.45
2023-03-24T05:35:48.565Z,4.80
2023-03-24T05:38:38.396Z,5.47
2023-03-24T05:47:52.015Z,6.13
2023-03-24T05:50:30.658Z,4.53
2023-03-24T05:56:56.022Z,6.50
2023-03-24T05:59:57.511Z,7.63
2023-03-24T06:02:42.186Z,9.05
2023-03-24T06:05:34.495Z,5.93
2023-03-24T06:08:04.155Z,7.97
2023-03-24T06:11:16.081Z,6.10
2023-03-24T06:17:02.110Z,5.95
2023-03-24T06:19:33.027Z,5.82
2023-03-24T06:22:34.984Z,6.05
2023-03-24T06:25:14.388Z,6.28
2023-03-24T06:27:49.408Z,6.05
2023-03-24T06:30:29.489Z,5.32
2023-03-24T06:35:28.373Z,7.70
2023-03-24T06:38:25.587Z,7.53
2023-03-24T06:40:52.957Z,6.65
2023-03-24T06:43:33.763Z,4.68
2023-03-24T06:46:05.050Z,5.72
2023-03-24T06:48:35.005Z,5.30
2023-03-24T06:51:07.348Z,6.03
2023-03-24T06:53:36.199Z,5.72
2023-03-24T06:56:29.204Z,5.70
2023-03-24T06:59:04.295Z,5.28
2023-03-24T07:01:47.043Z,4.53
2023-03-24T07:04:37.140Z,5.72
2023-03-24T07:07:57.066Z,7.60
2023-03-24T07:10:54.582Z,9.45
2023-03-24T07:13:23.848Z,7.97
2023-03-24T07:37:57.158Z,5.30
2023-03-24T08:03:19.172Z,6.10
2023-03-24T08:10:37.768Z,7.55
2023-03-24T08:24:59.057Z,7.90
2023-03-24T09:55:59.930Z,4.38
2023-03-24T09:59:22.541Z,3.00
2023-03-24T10:02:06.368Z,4.60
2023-03-24T10:15:38.109Z,4.60
2023-03-24T10:22:08.499Z,3.45
2023-03-24T10:25:08.110Z,4.18
2023-03-24T10:27:49.119Z,5.15
2023-03-24T10:30:35.849Z,4.80
2023-03-24T10:33:31.156Z,2.60
2023-03-24T10:36:25.570Z,6.70
2023-03-24T10:39:19.645Z,3.58
2023-03-24T10:45:26.244Z,6.03
2023-03-24T10:48:13.959Z,6.72
2023-03-24T10:51:05.710Z,6.40
2023-03-24T10:54:03.840Z,4.43
2023-03-24T11:00:12.351Z,4.75
2023-03-24T11:02:55.290Z,5.43
2023-03-24T11:05:35.193Z,3.88
2023-03-24T11:08:47.304Z,4.57
2023-03-24T11:11:32.150Z,8.70
2023-03-24T11:14:02.260Z,8.18
2023-03-24T11:17:18.815Z,6.07
2023-03-24T11:20:22.298Z,8.00
2023-03-24T11:23:03.011Z,5.57
2023-03-24T11:25:45.782Z,4.03
2023-03-24T11:28:23.966Z,6.57
2023-03-24T11:30:56.453Z,9.75
2023-03-24T11:36:41.268Z,3.50
2023-03-24T11:39:35.976Z,6.75
2023-03-24T11:42:41.149Z,8.50
2023-03-24T11:46:01.329Z,10.52
2023-03-24T11:48:56.463Z,6.03
2023-03-24T11:51:38.170Z,5.87
2023-03-24T11:54:13.328Z,7.95
2023-03-24T11:56:49.101Z,8.05
2023-03-24T11:59:45.784Z,7.22
2023-03-24T12:02:33.768Z,5.78
2023-03-24T12:05:47.659Z,7.03
2023-03-24T12:08:57.501Z,4.47
2023-03-24T12:11:55.427Z,9.30
2023-03-24T12:14:47.907Z,4.53
2023-03-24T12:17:30.842Z,4.70
2023-03-24T12:20:25.178Z,8.57
2023-03-24T12:23:15.152Z,7.63
2023-03-24T12:25:53.491Z,4.82
2023-03-24T12:28:32.871Z,10.85
2023-03-24T12:31:39.852Z,6.57
2023-03-24T12:34:22.009Z,6.15
2023-03-24T12:37:11.765Z,5.82
2023-03-24T12:40:17.723Z,6.70
2023-03-24T12:42:54.025Z,8.95
2023-03-24T12:45:30.016Z,7.57
2023-03-24T12:48:03.898Z,5.72
2023-03-24T12:51:03.209Z,8.38
2023-03-24T12:53:37.697Z,5.80
2023-03-24T12:56:10.868Z,7.78
2023-03-24T12:59:10.666Z,6.63
2023-03-24T13:02:06.399Z,6.28
2023-03-24T13:04:42.462Z,7.20
2023-03-24T13:07:16.280Z,7.53
2023-03-24T13:10:12.520Z,6.15
2023-03-24T13:12:55.352Z,6.75
2023-03-24T13:15:29.525Z,5.88
2023-03-24T13:18:11.920Z,6.67
2023-03-24T13:21:08.932Z,5.82
2023-03-24T13:24:07.975Z,7.75
2023-03-24T13:26:58.291Z,6.22
2023-03-24T13:30:07.408Z,7.85
2023-03-24T13:32:58.803Z,6.35
2023-03-24T13:35:57.517Z,6.35
2023-03-24T13:39:01.268Z,5.00
2023-03-24T13:41:35.253Z,5.90
2023-03-24T13:44:16.699Z,7.80
2023-03-24T13:46:44.599Z,5.82
2023-03-24T13:49:16.521Z,6.72
2023-03-24T13:51:49.253Z,7.50
2023-03-24T13:54:27.571Z,7.53
2023-03-24T13:57:05.197Z,7.40
2023-03-24T13:59:51.722Z,8.48
2023-03-24T14:02:41.938Z,8.55
2023-03-24T14:05:11.474Z,7.30
2023-03-24T14:07:51.842Z,6.03
2023-03-24T14:10:21.027Z,6.63
2023-03-24T14:12:55.082Z,7.70
2023-03-24T14:18:30.737Z,9.20
2023-03-24T14:21:05.652Z,6.47
2023-03-24T14:23:46.906Z,6.60
2023-03-24T14:26:30.926Z,5.38
2023-03-24T14:28:59.250Z,6.55
2023-03-24T14:31:51.946Z,7.05
2023-03-24T14:34:25.620Z,7.47
2023-03-24T14:37:04.282Z,9.65
2023-03-24T14:39:41.885Z,9.98
2023-03-24T14:42:53.515Z,6.82
2023-03-24T14:45:44.416Z,7.55
2023-03-24T14:48:44.214Z,7.03
2023-03-24T14:51:37.362Z,4.57
2023-03-24T14:54:17.803Z,5.05
2023-03-24T14:56:57.304Z,5.75
2023-03-24T14:59:48.791Z,5.10
2023-03-24T15:02:40.786Z,9.95
2023-03-24T15:05:22.562Z,5.95
2023-03-24T15:08:15.022Z,6.72
2023-03-24T15:11:04.554Z,4.95
2023-03-24T15:13:39.292Z,5.70
2023-03-24T15:16:21.594Z,4.60
2023-03-24T15:19:02.327Z,5.10
2023-03-24T15:21:52.464Z,5.72
2023-03-24T15:24:37.290Z,8.23
2023-03-24T15:27:27.200Z,6.22
2023-03-24T15:30:02.029Z,3.83
2023-03-24T15:32:33.472Z,3.83
2023-03-24T15:35:08.882Z,10.13
2023-03-24T15:37:43.655Z,7.63
2023-03-24T15:40:34.981Z,3.58
2023-03-24T15:43:08.237Z,4.30
2023-03-24T15:46:08.788Z,4.90
2023-03-24T15:48:50.142Z,5.07
2023-03-24T15:54:46.948Z,6.13
2023-03-24T15:57:19.324Z,5.10
2023-03-24T16:00:21.225Z,5.30
2023-03-24T16:03:01.188Z,18.25
2023-03-24T16:05:31.132Z,5.57
2023-03-24T16:11:30.809Z,6.80
2023-03-24T16:13:59.787Z,3.78
2023-03-24T16:16:30.158Z,4.57
2023-03-24T16:19:00.031Z,3.65
2023-03-24T16:21:30.487Z,6.47
2023-03-24T16:23:58.478Z,4.18
2023-03-24T16:26:31.458Z,5.47
2023-03-24T16:29:21.953Z,5.45
2023-03-24T16:31:54.169Z,3.85
2023-03-24T16:34:23.010Z,3.90
2023-03-24T16:36:54.639Z,5.32
2023-03-24T16:39:26.683Z,3.03
2023-03-24T16:41:56.975Z,4.45
2023-03-24T16:44:25.303Z,4.38
2023-03-24T16:46:54.372Z,4.40
2023-03-24T16:49:22.826Z,5.20
2023-03-24T16:51:59.002Z,3.60
2023-03-24T16:54:27.243Z,4.60
2023-03-24T16:56:58.596Z,3.97
2023-03-24T16:59:28.806Z,3.97
2023-03-24T17:02:04.797Z,3.97
2023-03-24T17:04:34.156Z,7.35
2023-03-24T17:07:04.818Z,5.63
2023-03-24T17:09:35.998Z,4.15
2023-03-24T17:12:06.366Z,3.08
2023-03-24T17:14:39.692Z,4.00
2023-03-24T17:17:11.825Z,5.60
2023-03-24T17:19:43.577Z,6.03
2023-03-24T17:22:24.774Z,9.93
2023-03-24T17:24:57.882Z,3.85
2023-03-24T17:27:31.466Z,4.13
2023-03-24T17:30:01.042Z,7.10
2023-03-24T17:32:30.176Z,6.32
2023-03-24T17:35:00.482Z,5.35
2023-03-24T17:37:31.906Z,3.63
2023-03-24T17:40:07.965Z,5.05
2023-03-24T17:46:27.148Z,4.82
2023-03-24T17:49:14.619Z,2.67
2023-03-24T17:52:00.555Z,4.65
2023-03-24T17:54:36.942Z,2.90
2023-03-24T17:57:19.997Z,3.80
2023-03-24T18:00:10.118Z,2.28
2023-03-24T18:02:54.310Z,2.45
2023-03-24T18:05:47.512Z,4.22
2023-03-24T18:12:08.896Z,5.10
2023-03-24T18:14:42.995Z,4.35
2023-03-24T18:17:17.034Z,2.70
2023-03-24T18:20:35.813Z,4.30
2023-03-24T18:23:39.137Z,5.55
2023-03-24T18:26:28.490Z,3.83
2023-03-24T18:29:05.853Z,2.83
2023-03-24T18:31:44.320Z,4.00
2023-03-24T18:34:14.393Z,3.70
2023-03-24T18:36:53.129Z,3.38
2023-03-24T18:51:42.689Z,5.03
2023-03-24T19:03:04.524Z,4.57
2023-03-24T19:09:52.422Z,5.05
2023-03-24T19:13:27.664Z,6.10
2023-03-24T19:27:39.387Z,10.65
2023-03-24T21:03:38.392Z,8.23
2023-03-24T21:06:52.206Z,7.85
2023-03-24T21:21:33.555Z,8.90
2023-03-24T21:24:52.942Z,9.90
2023-03-24T21:45:16.290Z,5.38
2023-03-24T21:58:02.102Z,5.72
2023-03-24T22:00:41.609Z,6.32
2023-03-24T22:06:31.048Z,5.40
2023-03-24T22:09:20.733Z,7.65
2023-03-24T22:11:57.631Z,7.30
2023-03-24T22:14:31.372Z,7.45
2023-03-24T22:17:00.710Z,6.93
2023-03-24T22:19:53.321Z,7.10
2023-03-24T22:22:24.124Z,8.35
2023-03-24T22:25:27.088Z,7.53
2023-03-24T22:28:00.724Z,8.70
2023-03-24T22:30:31.320Z,10.77
2023-03-24T22:33:22.819Z,8.63
2023-03-24T22:36:18.034Z,7.22
2023-03-24T22:38:48.036Z,11.05
2023-03-24T22:41:19.623Z,8.40
2023-03-24T22:43:54.808Z,6.38
2023-03-24T22:46:25.357Z,6.60
2023-03-24T22:48:54.320Z,8.50
2023-03-24T22:51:40.782Z,8.23
2023-03-24T22:54:19.153Z,10.15
2023-03-24T22:56:56.847Z,11.85
2023-03-24T22:59:33.301Z,9.40
2023-03-24T23:02:46.126Z,8.65
2023-03-24T23:08:01.943Z,6.88
2023-03-24T23:10:37.108Z,7.90
2023-03-24T23:13:07.566Z,6.50
2023-03-24T23:15:44.142Z,6.47
2023-03-24T23:18:48.368Z,16.80
2023-03-24T23:21:45.269Z,9.18
2023-03-24T23:24:18.187Z,8.88
2023-03-24T23:26:54.148Z,9.02
2023-03-24T23:29:49.272Z,11.18
2023-03-24T23:32:19.313Z,8.05
2023-03-24T23:35:14.029Z,10.57
2023-03-24T23:37:48.492Z,6.82
2023-03-24T23:41:10.678Z,7.88
2023-03-24T23:43:42.190Z,9.40
2023-03-24T23:46:25.452Z,9.65
2023-03-24T23:48:56.274Z,10.10
2023-03-24T23:51:44.808Z,9.23
2023-03-24T23:54:12.686Z,9.02
2023-03-24T23:57:04.680Z,7.88
2023-03-24T23:59:59.339Z,8.77
